Jacksonville, FL (32226)

7:44 PM EST on February 21, 2017 (GMT -0500)
| | Change Station

Elev -9999 ft 0.00 °N, 0.00 °E | Updated 4 minutes ago

Partly Cloudy
Partly Cloudy
°F
Feels Like °F
N
Wind Variable Wind from North
Gusts mph

Today
High -- | Low -- °F
--% Chance of Precip.
Yesterday
High -- | Low -- °F
Precip. -- in
Pressure 29.99 in
Visibility 10.0 miles
Clouds Few 5000 ft
Scattered Clouds 15000 ft
Mostly Cloudy 25000 ft
Dew Point Not available.
Humidity Not available.
Rainfall --
Snow Depth Not available.
7:00 AM 6:19 PM
Waning Crescent, 21% visible
METAR KJAX 212356Z 14007KT 10SM FEW050 SCT150 BKN250 21/16 A2999 RMK AO2 SLP154 T02060156 10250 20206 56002
Pressure 29.99 in
Visibility 10.0 miles
Clouds Few 5000 ft
Scattered Clouds 15000 ft
Mostly Cloudy 25000 ft
Dew Point Not available.
Humidity Not available.
Rainfall --
Snow Depth Not available.
7:00 AM 6:19 PM
Waning Crescent, 21% visible
METAR KJAX 212356Z 14007KT 10SM FEW050 SCT150 BKN250 21/16 A2999 RMK AO2 SLP154 T02060156 10250 20206 56002

Get Your Daily Forecast Email!

Thanks for signing up!

Be on the lookout for a verification email in your inbox.

You'll start receiving the daily forecast at 8 AM.

×

10-Day Weather Forecast

Almanac

Astronomy

Feb. 21, 2017 Rise Set
Actual Time
Civil Twilight
Nautical Twilight
Astronomical Twilight
Moon
Length of Visible Light
Length of Day
Tomorrow will be .
, % of the Moon is Illuminated

Today's Extremes

State Highs State Lows

Community

WunderPhotos

Upload Photos

1,962,540 photos uploaded!

WunderBlog® & News

Nearby

Air Quality

  Air Quality AQ Index Pollutant
Not available.

Snow Depth

Station Depth Elevation

Earthquake Activity

City Distance Mag. Time & Date
Minimum magnitude displayed is 2.5.

Coastal Water Temperatures

Place Temperature

Stations

Nearby Weather Stations

Station Location Temp. Windchill Dew Point Humidity Wind Precip. Elev Updated Type
                   

Watches & Warnings

There are currently no watches in effect.